Time;durP1;ratioP1;P1;durP2;ratioP2;P2;SDS_P1;SDS_P2;PMS_P1;PMS_P2;Temp;Humidity;BMP_temperature;BMP_pressure;BME280_temperature;BME280_humidity;BME280_pressure;Samples;Min_cycle;Max_cycle;Signal;HPM_P1;HPM_P2
2023/02/13 00:00:37;;;;;;;19.80;14.40;;;;;;;10.86;66.35;101979.63;5011418;28;20292;-80
2023/02/13 00:03:04;;;;;;;19.85;13.50;;;;;;;10.85;66.05;101980.56;5011234;28;20103;-81
2023/02/13 00:05:30;;;;;;;19.15;13.98;;;;;;;10.82;66.14;101982.38;5011318;28;20137;-80
2023/02/13 00:07:57;;;;;;;23.50;14.88;;;;;;;10.81;66.24;101975.34;5012973;28;20045;-81
2023/02/13 00:10:36;;;;;;;20.58;13.82;;;;;;;10.84;66.21;101976.19;5014048;28;20053;-80
2023/02/13 00:13:02;;;;;;;18.52;13.82;;;;;;;10.81;66.31;101971.84;5010633;28;20513;-80
2023/02/13 00:15:29;;;;;;;20.27;14.18;;;;;;;10.82;66.28;101968.31;5010355;28;20475;-81
2023/02/13 00:17:56;;;;;;;18.58;13.80;;;;;;;10.81;66.31;101972.69;5008986;28;20064;-81
2023/02/13 00:20:22;;;;;;;23.63;15.23;;;;;;;10.82;66.31;101970.94;5011691;28;20046;-80
2023/02/13 00:22:49;;;;;;;18.48;13.27;;;;;;;10.84;66.46;101973.56;5017423;28;20058;-80
2023/02/13 00:25:16;;;;;;;20.58;14.77;;;;;;;10.85;66.36;101970.88;5017240;28;20053;-81
2023/02/13 00:27:42;;;;;;;21.52;14.63;;;;;;;10.86;66.47;101959.44;5017189;28;20482;-80
2023/02/13 00:30:09;;;;;;;18.67;13.68;;;;;;;10.87;66.41;101957.69;5017202;28;20092;-80
2023/02/13 00:32:36;;;;;;;19.00;15.00;;;;;;;10.89;66.31;101958.50;5017303;28;20605;-81
2023/02/13 00:35:03;;;;;;;19.83;13.98;;;;;;;10.89;66.40;101954.09;5016817;28;20476;-80
2023/02/13 00:37:30;;;;;;;17.77;13.88;;;;;;;10.90;66.26;101955.84;5016974;28;20085;-80
2023/02/13 00:39:56;;;;;;;21.67;15.88;;;;;;;10.92;66.22;101953.16;5017221;28;20056;-80
2023/02/13 00:42:25;;;;;;;22.00;15.90;;;;;;;10.93;66.14;101960.16;5017164;28;20129;-80
2023/02/13 00:44:52;;;;;;;21.77;14.63;;;;;;;10.93;66.05;101960.16;5016656;28;20141;-81
2023/02/13 00:47:20;;;;;;;23.00;15.25;;;;;;;10.92;65.91;101961.06;5016677;28;20410;-81
2023/02/13 00:49:46;;;;;;;23.38;16.10;;;;;;;10.91;66.09;101956.69;5016831;28;20100;-81
2023/02/13 00:52:13;;;;;;;22.55;14.85;;;;;;;10.92;66.22;101966.34;5017185;28;20069;-81
2023/02/13 00:54:39;;;;;;;23.00;15.48;;;;;;;10.91;66.02;101959.31;5017079;28;20050;-80
2023/02/13 00:57:06;;;;;;;20.17;14.32;;;;;;;10.91;66.14;101961.94;5014933;28;20080;-80
2023/02/13 00:59:33;;;;;;;19.02;14.25;;;;;;;10.93;66.35;101968.06;5016811;28;20100;-80
2023/02/13 01:01:59;;;;;;;23.02;15.65;;;;;;;10.93;66.27;101960.16;5017027;28;20081;-80
2023/02/13 01:04:26;;;;;;;21.30;14.48;;;;;;;10.94;66.26;101967.16;5016856;28;20394;-80
2023/02/13 01:06:52;;;;;;;22.02;15.07;;;;;;;10.95;66.14;101960.97;5016584;28;20452;-80
2023/02/13 01:09:19;;;;;;;21.80;14.70;;;;;;;10.95;66.22;101958.34;5017174;28;20046;-80
2023/02/13 01:11:46;;;;;;;21.48;15.70;;;;;;;10.94;66.13;101960.13;5017335;28;20726;-80
2023/02/13 01:14:12;;;;;;;18.73;14.75;;;;;;;10.95;65.95;101963.63;5016756;28;20045;-80
2023/02/13 01:16:39;;;;;;;20.67;15.00;;;;;;;10.94;66.16;101960.13;5016062;28;20046;-81
2023/02/13 01:19:06;;;;;;;20.58;14.85;;;;;;;10.95;66.10;101959.22;5016925;28;20046;-81
2023/02/13 01:21:32;;;;;;;22.67;16.10;;;;;;;10.95;66.12;101958.34;5016504;28;20096;-80
2023/02/13 01:24:02;;;;;;;21.65;14.93;;;;;;;10.93;66.00;101953.13;5016682;28;20088;-81
2023/02/13 01:26:29;;;;;;;19.67;14.02;;;;;;;10.95;66.04;101953.06;5016507;28;20061;-81
2023/02/13 01:28:56;;;;;;;23.85;15.60;;;;;;;10.94;66.05;101953.97;5016467;28;20061;-80
2023/02/13 01:31:24;;;;;;;22.17;15.85;;;;;;;10.93;66.08;101945.22;5016374;28;20082;-80
2023/02/13 01:33:51;;;;;;;19.92;15.68;;;;;;;10.93;65.93;101947.00;5012959;28;20046;-80
2023/02/13 01:36:17;;;;;;;18.95;14.45;;;;;;;10.93;65.92;101944.34;5013309;28;20058;-81
2023/02/13 01:38:44;;;;;;;23.88;16.20;;;;;;;10.91;65.91;101941.75;5013302;28;20137;-81
2023/02/13 01:41:11;;;;;;;24.70;14.63;;;;;;;10.91;65.94;101952.28;5013486;28;20054;-81
2023/02/13 01:43:54;;;;;;;18.63;14.95;;;;;;;10.88;65.88;101944.44;5013559;28;20050;-81
2023/02/13 01:46:26;;;;;;;;;;;;;;;10.90;65.87;101933.88;5012085;28;20545;-81
2023/02/13 01:48:56;;;;;;;23.35;13.88;;;;;;;10.92;65.65;101935.56;5011337;28;19946;-81
2023/02/13 01:51:28;;;;;;;17.75;13.50;;;;;;;10.90;65.89;101931.25;5005823;28;20085;-80
2023/02/13 01:54:14;;;;;;;20.08;15.02;;;;;;;10.87;65.80;101928.69;5004593;28;20482;-81
2023/02/13 01:56:44;;;;;;;22.08;15.55;;;;;;;10.86;65.91;101924.31;5006830;28;20133;-80
2023/02/13 01:59:20;;;;;;;19.67;14.60;;;;;;;10.82;65.93;101928.78;5012030;28;20716;-80
2023/02/13 02:01:47;;;;;;;19.70;14.27;;;;;;;10.85;65.93;101933.13;5008368;28;20502;-80
2023/02/13 02:04:21;;;;;;;26.00;15.55;;;;;;;10.81;66.09;101930.56;5032812;28;20579;-80
2023/02/13 02:06:57;;;;;;;21.38;15.55;;;;;;;10.80;66.04;101928.81;5014055;28;20549;-80
2023/02/13 02:09:31;;;;;;;19.15;14.02;;;;;;;10.79;66.20;101921.84;5033208;28;20068;-80
2023/02/13 02:12:16;;;;;;;23.77;15.73;;;;;;;10.78;66.20;101928.00;5015380;28;20057;-80
2023/02/13 02:14:44;;;;;;;19.50;14.65;;;;;;;10.81;66.05;101929.69;5032491;28;20085;-81
2023/02/13 02:17:11;;;;;;;22.95;15.57;;;;;;;10.80;66.21;101934.09;5014224;28;20127;-80
2023/02/13 02:20:01;;;;;;;27.08;16.60;;;;;;;10.80;66.16;101941.13;5032518;28;20057;-81
2023/02/13 02:23:05;;;;;;;22.67;14.52;;;;;;;10.75;66.07;101935.09;4995139;28;20057;-81
2023/02/13 02:25:43;;;;;;;;;;;;;;;10.79;65.99;101931.50;5032412;28;20053;-81
2023/02/13 02:28:50;;;;;;;16.58;11.88;;;;;;;10.78;66.02;101925.38;5032156;28;19944;-81
2023/02/13 02:31:45;;;;;;;19.98;13.40;;;;;;;10.76;66.21;101929.78;5032334;28;20148;-81
2023/02/13 02:34:46;;;;;;;18.92;13.80;;;;;;;10.74;66.15;101925.47;5025119;28;20494;-81
2023/02/13 02:37:24;;;;;;;24.02;15.75;;;;;;;10.75;66.10;101924.56;5031816;28;20050;-81
2023/02/13 02:40:05;;;;;;;19.98;15.18;;;;;;;10.76;66.03;101919.25;5032234;28;20049;-81
2023/02/13 02:43:02;;;;;;;21.75;15.80;;;;;;;10.71;66.21;101913.22;5032339;28;20379;-81
2023/02/13 02:45:39;;;;;;;19.83;15.02;;;;;;;10.71;66.38;101910.59;5032134;28;20145;-80
2023/02/13 02:51:16;;;;;;;19.25;14.23;;;;;;;10.74;66.19;101907.91;5032181;28;20099;-81
2023/02/13 02:53:56;;;;;;;20.98;15.10;;;;;;;10.71;66.23;101915.00;5031745;28;20140;-81
2023/02/13 02:56:34;;;;;;;20.15;15.48;;;;;;;10.71;66.27;101904.44;5013905;28;20060;-81
2023/02/13 03:07:26;;;;;;;18.65;13.07;;;;;;;10.72;66.23;101904.41;5031260;28;20050;-81
2023/02/13 03:13:20;;;;;;;22.63;15.55;;;;;;;10.68;66.33;101902.75;4972039;28;20145;-78
2023/02/13 03:22:19;;;;;;;23.05;15.35;;;;;;;10.64;66.53;101901.09;4972458;28;20133;-79
2023/02/13 03:24:52;;;;;;;21.60;14.50;;;;;;;10.68;66.36;101900.13;4972384;28;20138;-79
2023/02/13 03:30:55;;;;;;;19.70;14.15;;;;;;;10.62;66.33;101901.13;4972315;28;20051;-79
2023/02/13 03:33:22;;;;;;;20.13;14.75;;;;;;;10.65;66.16;101900.22;4972451;28;20051;-79
2023/02/13 03:38:49;;;;;;;24.33;14.50;;;;;;;10.60;66.32;101904.69;4971975;28;20050;-78
2023/02/13 03:41:24;;;;;;;21.27;15.15;;;;;;;10.57;66.23;101904.78;4972428;28;20078;-79
2023/02/13 03:44:06;;;;;;;21.25;14.73;;;;;;;10.53;66.58;101910.13;4972265;28;20137;-79
2023/02/13 03:46:36;;;;;;;17.58;12.27;;;;;;;10.55;66.51;101908.28;4954351;28;20405;-80
2023/02/13 03:50:06;;;;;;;20.10;15.38;;;;;;;10.54;66.62;101909.22;4972105;28;20474;-79
2023/02/13 03:52:09;;;;;;;23.17;14.93;;;;;;;10.55;66.63;101903.03;4959177;28;20061;-79
2023/02/13 04:00:21;;;;;;;20.40;14.05;;;;;;;10.56;66.41;101901.28;4971968;28;20653;-78
2023/02/13 04:02:57;;;;;;;20.13;14.48;;;;;;;10.53;66.42;101896.06;4971813;28;20073;-79
2023/02/13 04:05:28;;;;;;;20.73;15.30;;;;;;;10.54;66.52;101897.78;4954450;28;20055;-78
2023/02/13 04:07:55;;;;;;;20.42;15.63;;;;;;;10.54;66.41;101903.06;4971458;28;20053;-79
2023/02/13 04:10:26;;;;;;;21.63;15.52;;;;;;;10.52;66.57;101905.75;4971947;28;20055;-79
2023/02/13 04:13:13;;;;;;;23.70;15.73;;;;;;;10.49;66.78;101907.56;4971938;28;20285;-79
2023/02/13 04:15:50;;;;;;;20.60;14.70;;;;;;;10.51;66.81;101897.88;4971582;28;20099;-79
2023/02/13 04:18:22;;;;;;;19.45;14.38;;;;;;;10.52;66.66;101907.50;4971341;28;20051;-79
2023/02/13 04:20:48;;;;;;;20.93;14.87;;;;;;;10.53;66.44;101909.22;4971820;28;20050;-79
2023/02/13 04:23:15;;;;;;;22.40;17.13;;;;;;;10.52;66.31;101911.03;4954407;28;20051;-79
2023/02/13 04:25:46;;;;;;;22.77;14.88;;;;;;;10.49;66.36;101908.44;4971516;28;20047;-79
2023/02/13 04:28:12;;;;;;;20.33;15.40;;;;;;;10.47;66.40;101904.97;4971348;28;20061;-79
2023/02/13 04:30:39;;;;;;;22.63;16.02;;;;;;;10.45;66.67;101912.03;4971660;28;20133;-79
2023/02/13 04:33:06;;;;;;;20.98;15.25;;;;;;;10.45;66.72;101906.78;4971607;28;20117;-79
2023/02/13 04:35:32;;;;;;;21.02;15.15;;;;;;;10.43;66.80;101906.78;4971384;28;20061;-79
2023/02/13 04:37:59;;;;;;;24.40;15.80;;;;;;;10.45;66.74;101911.16;4971153;28;20496;-79
2023/02/13 04:40:25;;;;;;;23.02;15.48;;;;;;;10.45;66.86;101904.16;4971668;28;20058;-79
2023/02/13 04:42:52;;;;;;;22.23;15.35;;;;;;;10.46;66.93;101908.50;4954239;28;20140;-79
2023/02/13 04:45:18;;;;;;;22.58;16.25;;;;;;;10.46;66.82;101908.50;4971096;28;20086;-79
2023/02/13 04:47:50;;;;;;;24.88;15.73;;;;;;;10.45;66.85;101900.63;4970929;28;20471;-79
2023/02/13 04:50:16;;;;;;;21.95;15.40;;;;;;;10.47;66.76;101902.31;4954401;28;20046;-79
2023/02/13 04:52:43;;;;;;;22.63;15.35;;;;;;;10.48;66.36;101901.47;4971527;28;20086;-79
2023/02/13 04:55:09;;;;;;;24.10;16.15;;;;;;;10.48;66.53;101901.47;4971115;28;20146;-79
2023/02/13 04:57:36;;;;;;;22.90;16.60;;;;;;;10.47;66.66;101897.06;4971007;28;20082;-79
2023/02/13 05:00:04;;;;;;;22.95;15.75;;;;;;;10.46;66.63;101897.97;4971407;28;20050;-79
2023/02/13 05:02:31;;;;;;;23.45;16.00;;;;;;;10.45;66.49;101896.25;4971361;28;20054;-79
2023/02/13 05:04:57;;;;;;;19.65;14.40;;;;;;;10.46;66.76;101897.13;4971089;28;20531;-80
2023/02/13 05:07:24;;;;;;;20.85;14.93;;;;;;;10.43;66.68;101895.38;4971413;28;20066;-79
2023/02/13 05:09:50;;;;;;;21.00;15.48;;;;;;;10.45;67.03;101898.88;4974890;28;20065;-79
2023/02/13 05:12:16;;;;;;;22.92;15.75;;;;;;;10.45;66.72;101896.25;4974864;28;20062;-79
2023/02/13 05:14:43;;;;;;;23.40;15.90;;;;;;;10.46;66.75;101899.75;4974673;28;20491;-79
2023/02/13 05:17:10;;;;;;;21.70;14.80;;;;;;;10.45;66.65;101898.88;4974530;28;20051;-80
2023/02/13 05:19:36;;;;;;;19.90;14.68;;;;;;;10.45;66.74;101901.50;4966813;28;20055;-79
2023/02/13 05:24:48;;;;;;;24.63;16.52;;;;;;;10.46;66.66;101900.59;4974378;28;20047;-79
2023/02/13 05:27:14;;;;;;;20.20;14.55;;;;;;;10.46;66.64;101895.34;4974336;28;20057;-79
2023/02/13 05:29:41;;;;;;;22.40;15.52;;;;;;;10.45;66.74;101896.25;4974508;28;20497;-79
2023/02/13 05:32:07;;;;;;;21.65;14.85;;;;;;;10.45;66.64;101898.00;4974732;28;20066;-79
2023/02/13 05:34:34;;;;;;;19.70;14.50;;;;;;;10.45;66.79;101904.16;4974440;28;20050;-80
2023/02/13 05:37:01;;;;;;;21.90;14.75;;;;;;;10.45;66.73;101900.63;4973698;28;20077;-79
2023/02/13 05:39:27;;;;;;;22.17;15.00;;;;;;;10.45;66.72;101896.25;4974279;28;20062;-79
2023/02/13 05:41:54;;;;;;;22.98;15.23;;;;;;;10.46;66.75;101894.50;4957260;28;20583;-80
2023/02/13 05:44:20;;;;;;;23.83;15.25;;;;;;;10.47;66.79;101901.47;4974424;28;20066;-79
2023/02/13 05:46:48;;;;;;;20.60;14.40;;;;;;;10.47;66.72;101898.84;4973794;28;20054;-79
2023/02/13 05:49:14;;;;;;;21.88;15.45;;;;;;;10.46;66.59;101897.97;4974048;28;20054;-79
2023/02/13 05:51:42;;;;;;;22.15;15.20;;;;;;;10.47;66.54;101904.97;4974231;28;20058;-79
2023/02/13 05:54:08;;;;;;;22.70;15.40;;;;;;;10.47;66.53;101907.59;4956684;28;20058;-79
2023/02/13 05:56:35;;;;;;;23.92;14.88;;;;;;;10.46;66.78;101912.94;4973619;28;20050;-80
2023/02/13 05:59:01;;;;;;;24.90;15.98;;;;;;;10.47;66.73;101915.50;4974219;28;20141;-79
2023/02/13 06:01:28;;;;;;;24.88;16.20;;;;;;;10.46;66.83;101911.13;4956856;28;20055;-79
2023/02/13 06:03:54;;;;;;;22.98;15.65;;;;;;;10.47;66.77;101915.50;4973900;28;20653;-79
2023/02/13 06:06:24;;;;;;;22.17;15.27;;;;;;;10.47;66.66;101918.13;4973387;28;20506;-79
2023/02/13 06:08:51;;;;;;;21.95;15.13;;;;;;;10.48;66.63;101916.38;4973586;28;20051;-79
2023/02/13 06:11:18;;;;;;;23.02;15.02;;;;;;;10.48;66.72;101916.38;4973615;28;20051;-79
2023/02/13 06:13:44;;;;;;;23.92;15.52;;;;;;;10.47;66.63;101918.13;4956615;28;20414;-78
2023/02/13 06:16:11;;;;;;;21.17;15.75;;;;;;;10.46;66.72;101926.94;4973553;28;20070;-78
2023/02/13 06:18:38;;;;;;;24.35;15.85;;;;;;;10.46;66.80;101924.31;4972933;28;20050;-78
2023/02/13 06:21:06;;;;;;;23.73;15.52;;;;;;;10.46;66.72;101926.09;4973582;28;20068;-78
2023/02/13 06:23:33;;;;;;;23.02;15.75;;;;;;;10.46;66.84;101924.31;4956361;28;20431;-78
2023/02/13 06:26:04;;;;;;;22.98;15.52;;;;;;;10.42;66.81;101920.84;4973182;28;20451;-78
2023/02/13 06:28:31;;;;;;;22.70;15.85;;;;;;;10.46;66.66;101923.44;4973360;28;20141;-78
2023/02/13 06:30:57;;;;;;;20.35;14.77;;;;;;;10.44;66.69;101918.22;4973552;28;20404;-78
2023/02/13 06:33:25;;;;;;;21.08;15.30;;;;;;;10.43;66.65;101916.44;4973342;28;20086;-78
2023/02/13 06:35:51;;;;;;;25.05;15.77;;;;;;;10.41;66.78;101924.38;4955997;28;20086;-78
2023/02/13 06:38:18;;;;;;;22.77;15.25;;;;;;;10.42;66.77;101920.84;4955969;28;20518;-78
2023/02/13 06:40:46;;;;;;;23.55;15.68;;;;;;;10.42;66.80;101927.88;4973294;28;20129;-79
2023/02/13 06:43:13;;;;;;;22.20;15.23;;;;;;;10.42;66.82;101933.13;4973308;28;20066;-78
2023/02/13 06:45:40;;;;;;;24.67;15.75;;;;;;;10.43;66.77;101929.59;4973077;28;20059;-78
2023/02/13 06:48:06;;;;;;;20.90;13.25;;;;;;;10.42;66.66;101934.00;4972781;28;20138;-78
2023/02/13 06:50:36;;;;;;;23.10;15.05;;;;;;;10.41;66.73;101934.91;4973421;28;20161;-78
2023/02/13 06:53:02;;;;;;;20.63;14.13;;;;;;;10.42;66.70;101930.50;4973282;28;20055;-78
2023/02/13 06:55:29;;;;;;;22.25;15.10;;;;;;;10.42;66.72;101933.13;4972912;28;20047;-79
2023/02/13 06:57:55;;;;;;;25.27;15.77;;;;;;;10.43;66.86;101940.13;4972588;28;20109;-78
2023/02/13 07:00:22;;;;;;;25.60;15.45;;;;;;;10.43;66.90;101937.50;4973090;28;20142;-79
2023/02/13 07:02:51;;;;;;;21.73;14.55;;;;;;;10.44;66.82;101939.28;4972774;28;20047;-78
2023/02/13 07:05:19;;;;;;;22.70;15.52;;;;;;;10.45;66.83;101942.75;4972814;28;20113;-78
2023/02/13 07:07:45;;;;;;;20.77;13.27;;;;;;;10.43;66.74;101943.63;4955088;28;20054;-79
2023/02/13 07:10:13;;;;;;;23.90;15.70;;;;;;;10.43;66.74;101941.00;4972901;28;20291;-79
2023/02/13 07:12:40;;;;;;;22.52;14.75;;;;;;;10.43;66.87;101945.38;4972702;28;20145;-78
2023/02/13 07:15:07;;;;;;;24.70;15.50;;;;;;;10.43;66.65;101948.03;4972273;28;20482;-78
2023/02/13 07:17:34;;;;;;;25.05;15.48;;;;;;;10.43;66.45;101946.28;4972523;28;20138;-78
2023/02/13 07:20:01;;;;;;;34.78;17.90;;;;;;;10.42;66.78;101949.81;4972746;28;20051;-79
2023/02/13 07:22:27;;;;;;;24.88;15.60;;;;;;;10.43;66.80;101953.28;4972618;28;20054;-78
2023/02/13 07:24:54;;;;;;;24.40;14.23;;;;;;;10.46;66.79;101960.31;4955117;28;20051;-78
2023/02/13 07:27:20;;;;;;;22.08;14.55;;;;;;;10.43;66.91;101962.06;4972277;28;20093;-78
2023/02/13 07:29:47;;;;;;;23.10;14.55;;;;;;;10.45;66.87;101959.44;4972077;28;20051;-78
2023/02/13 07:32:14;;;;;;;25.60;16.20;;;;;;;10.47;66.98;101965.53;4971832;28;20047;-78
2023/02/13 07:34:40;;;;;;;21.55;14.43;;;;;;;10.48;67.02;101958.50;4972445;28;20054;-78
2023/02/13 07:37:27;;;;;;;21.50;13.68;;;;;;;10.49;66.77;101961.09;4972047;28;20082;-78
2023/02/13 07:39:53;;;;;;;20.85;13.50;;;;;;;10.50;66.89;101959.34;4972317;28;20055;-78
2023/02/13 07:42:20;;;;;;;22.15;14.23;;;;;;;10.53;66.86;101973.31;4971854;28;20047;-78
2023/02/13 07:44:46;;;;;;;20.65;13.63;;;;;;;10.53;66.96;101968.03;4971923;28;20411;-78
2023/02/13 07:47:13;;;;;;;20.13;13.48;;;;;;;10.55;66.67;101966.22;4971903;28;20055;-78
2023/02/13 07:49:40;;;;;;;18.27;13.20;;;;;;;10.56;66.94;101972.38;4972065;28;20082;-78
2023/02/13 07:52:06;;;;;;;19.83;12.90;;;;;;;10.59;66.99;101967.06;4972081;28;20055;-78
2023/02/13 07:54:33;;;;;;;18.27;12.43;;;;;;;10.62;67.21;101971.38;4971894;28;20074;-79
2023/02/13 07:56:59;;;;;;;21.77;14.15;;;;;;;10.64;66.94;101974.84;4971240;28;20046;-78
2023/02/13 07:59:26;;;;;;;21.75;14.00;;;;;;;10.65;66.90;101966.06;4972053;28;20053;-78
2023/02/13 08:01:52;;;;;;;19.30;13.07;;;;;;;10.66;66.93;101963.38;4954952;28;20099;-78
2023/02/13 08:04:19;;;;;;;19.42;13.48;;;;;;;10.68;67.01;101963.34;4971797;28;20047;-78
2023/02/13 08:06:46;;;;;;;19.45;12.90;;;;;;;10.70;66.88;101966.81;4954159;28;20097;-78
2023/02/13 08:12:08;;;;;;;18.20;12.10;;;;;;;10.72;66.59;101957.09;4972238;28;20058;-78
2023/02/13 08:14:35;;;;;;;19.52;13.35;;;;;;;10.75;66.75;101962.31;4971544;28;20486;-78
2023/02/13 08:17:01;;;;;;;16.95;11.10;;;;;;;10.77;66.66;101963.13;4971203;28;20419;-78
2023/02/13 08:19:28;;;;;;;16.27;11.57;;;;;;;10.78;66.51;101958.75;4971886;28;20069;-79
2023/02/13 08:21:55;;;;;;;20.75;11.93;;;;;;;10.79;66.65;101958.72;4971586;28;20059;-78
2023/02/13 08:24:22;;;;;;;18.30;12.15;;;;;;;10.82;66.76;101966.56;4971753;28;20658;-78
2023/02/13 08:26:49;;;;;;;19.88;12.50;;;;;;;10.84;66.73;101963.84;4971137;28;20061;-78
2023/02/13 08:29:15;;;;;;;20.65;12.57;;;;;;;10.86;66.62;101964.72;4971542;28;20058;-78
2023/02/13 08:31:42;;;;;;;18.20;12.25;;;;;;;10.89;66.64;101966.41;4954451;28;20665;-78
2023/02/13 08:34:09;;;;;;;15.60;10.85;;;;;;;10.91;66.67;101959.31;4971559;28;20054;-78
2023/02/13 08:36:36;;;;;;;16.27;11.38;;;;;;;10.92;66.44;101961.91;4970839;28;20047;-76
2023/02/13 08:39:02;;;;;;;17.30;11.57;;;;;;;10.95;66.35;101960.97;4971697;28;20054;-78
2023/02/13 08:41:29;;;;;;;18.67;11.98;;;;;;;10.98;66.53;101962.72;4972202;28;20059;-79
2023/02/13 08:43:55;;;;;;;20.13;12.40;;;;;;;10.99;66.54;101957.38;4975494;28;20120;-78
2023/02/13 08:46:22;;;;;;;14.77;10.88;;;;;;;11.02;66.48;101962.59;4975008;28;20070;-78
2023/02/13 08:48:49;;;;;;;18.10;11.32;;;;;;;11.05;66.57;101962.53;4974926;28;20126;-78
2023/02/13 08:51:15;;;;;;;20.20;12.68;;;;;;;11.10;66.53;101966.81;4975087;28;20518;-78
2023/02/13 08:53:42;;;;;;;18.17;11.80;;;;;;;11.14;66.58;101965.84;4975686;28;20069;-78
2023/02/13 08:56:08;;;;;;;16.15;11.57;;;;;;;11.19;66.45;101967.47;4974884;28;20080;-78
2023/02/13 08:58:35;;;;;;;15.80;11.20;;;;;;;11.23;66.29;101976.16;4975027;28;20058;-78
2023/02/13 09:01:06;;;;;;;17.67;11.63;;;;;;;11.25;65.97;101979.63;4975158;28;20047;-78
2023/02/13 09:03:34;;;;;;;14.63;10.80;;;;;;;11.29;66.24;101981.28;4975021;28;20086;-78
2023/02/13 09:06:02;;;;;;;18.02;11.38;;;;;;;11.32;66.16;101975.06;4974816;28;20138;-78
2023/02/13 09:08:29;;;;;;;15.98;11.10;;;;;;;11.31;65.88;101971.56;4957354;28;20471;-78
2023/02/13 09:10:58;;;;;;;14.52;10.77;;;;;;;11.33;65.86;101977.66;5027595;23;20049;-81
2023/02/13 09:13:25;;;;;;;13.55;10.73;;;;;;;11.34;65.87;101975.91;5011915;28;20052;-81
2023/02/13 09:15:51;;;;;;;14.38;10.32;;;;;;;11.36;65.77;101974.09;5012734;28;20068;-81
2023/02/13 09:18:18;;;;;;;14.23;10.57;;;;;;;11.37;65.67;101975.84;5012849;28;20061;-81
2023/02/13 09:20:44;;;;;;;12.50;9.25;;;;;;;11.39;65.70;101973.13;5012958;28;20115;-81
2023/02/13 09:23:11;;;;;;;12.95;10.02;;;;;;;11.43;65.89;101980.06;5012989;28;20049;-81
2023/02/13 09:25:37;;;;;;;14.25;10.57;;;;;;;11.45;65.82;101973.00;5012989;28;20046;-80
2023/02/13 09:28:03;;;;;;;15.00;10.93;;;;;;;11.48;65.75;101978.22;5012679;28;20069;-81
2023/02/13 09:30:30;;;;;;;13.13;9.77;;;;;;;11.53;65.61;101978.97;5013011;28;20053;-81
2023/02/13 09:32:56;;;;;;;13.73;10.15;;;;;;;11.56;65.66;101975.38;5011628;28;20056;-80
2023/02/13 09:35:23;;;;;;;13.35;10.10;;;;;;;11.59;65.78;101975.31;5012460;28;20046;-81
2023/02/13 09:37:49;;;;;;;15.75;10.55;;;;;;;11.64;65.78;101976.03;5011340;28;20049;-81
2023/02/13 09:40:30;;;;;;;12.23;9.85;;;;;;;11.68;64.87;101982.09;5011574;28;20049;-81
2023/02/13 09:43:06;;;;;;;13.00;10.15;;;;;;;11.74;64.76;101976.69;5012733;28;20054;-81
2023/02/13 09:45:34;;;;;;;13.15;9.38;;;;;;;11.82;65.24;101974.69;5012312;28;20433;-81
2023/02/13 09:48:00;;;;;;;11.75;9.43;;;;;;;11.85;64.98;101974.59;5012355;28;20060;-81
2023/02/13 09:50:30;;;;;;;14.77;10.40;;;;;;;11.86;64.35;101981.59;5012841;28;20124;-81
2023/02/13 09:52:58;;;;;;;12.55;9.52;;;;;;;11.91;64.62;101983.25;5012009;28;20736;-81
2023/02/13 09:55:40;;;;;;;12.18;9.85;;;;;;;11.89;64.16;101978.00;5012078;28;20054;-81
2023/02/13 09:58:20;;;;;;;12.43;9.40;;;;;;;11.89;63.94;101977.16;5011942;28;20060;-81
2023/02/13 10:00:56;;;;;;;12.60;10.13;;;;;;;11.92;63.67;101987.66;5012347;28;20054;-81
2023/02/13 10:03:35;;;;;;;12.60;9.57;;;;;;;11.92;63.31;101990.28;5012409;28;20058;-81
2023/02/13 10:06:21;;;;;;;12.95;9.95;;;;;;;11.91;63.25;101991.19;5012057;28;20058;-81
2023/02/13 10:09:06;;;;;;;14.73;10.90;;;;;;;11.95;64.27;101987.53;5012254;28;20464;-80
2023/02/13 10:11:52;;;;;;;12.68;9.45;;;;;;;11.91;63.36;101992.06;5012178;28;20061;-81
2023/02/13 10:14:25;;;;;;;13.55;9.73;;;;;;;11.93;63.46;102000.78;4991894;28;20052;-81
2023/02/13 10:17:01;;;;;;;13.20;9.63;;;;;;;12.00;64.17;101996.19;5006730;28;20062;-80
2023/02/13 10:19:40;;;;;;;11.00;8.85;;;;;;;12.02;63.43;101999.69;5010967;28;20050;-81
2023/02/13 10:22:10;;;;;;;12.57;8.75;;;;;;;12.09;63.92;101998.66;5012416;28;20129;-81
2023/02/13 10:24:51;;;;;;;10.20;8.02;;;;;;;12.09;62.15;102001.28;5011983;28;20057;-81
2023/02/13 10:27:27;;;;;;;9.95;8.30;;;;;;;12.16;62.35;101990.56;4994185;28;20054;-81
2023/02/13 10:30:05;;;;;;;10.90;8.57;;;;;;;12.19;62.49;101996.59;4994671;28;20057;-81
2023/02/13 10:33:18;;;;;;;9.38;8.05;;;;;;;12.21;62.31;102000.09;5011975;28;20303;-81
2023/02/13 10:35:51;;;;;;;10.30;8.43;;;;;;;12.29;62.44;101991.09;5011434;28;20126;-81
2023/02/13 10:38:20;;;;;;;11.80;8.20;;;;;;;12.36;63.06;101987.34;5011604;28;20054;-81
2023/02/13 10:41:01;;;;;;;11.43;8.48;;;;;;;12.38;62.05;101989.03;5011786;28;20057;-81
2023/02/13 10:43:50;;;;;;;10.63;8.40;;;;;;;12.47;62.55;101992.31;5026695;28;20108;-81
2023/02/13 10:46:53;;;;;;;10.52;8.43;;;;;;;12.53;61.43;101986.00;5011385;28;20053;-81
2023/02/13 10:49:36;;;;;;;12.10;8.35;;;;;;;12.58;61.82;101984.97;4958819;28;20090;-81
2023/02/13 10:52:13;;;;;;;10.20;8.52;;;;;;;12.60;61.77;101983.13;5010403;28;20050;-81
2023/02/13 10:55:04;;;;;;;9.55;8.45;;;;;;;12.66;61.72;101974.16;5002640;28;20053;-81
2023/02/13 10:58:01;;;;;;;10.20;8.77;;;;;;;12.71;61.60;101981.94;5009886;28;20134;-81
2023/02/13 11:00:56;;;;;;;11.75;8.82;;;;;;;12.75;61.25;101967.75;5010884;28;20046;-81
2023/02/13 11:03:25;;;;;;;10.82;9.02;;;;;;;12.84;61.77;101971.84;5004770;28;20050;-81
2023/02/13 11:05:53;;;;;;;10.32;8.63;;;;;;;12.88;61.83;101979.66;5010748;28;20416;-81
2023/02/13 11:08:23;;;;;;;12.43;8.63;;;;;;;12.86;61.13;101964.75;5010751;28;20144;-81
2023/02/13 11:10:51;;;;;;;10.80;8.85;;;;;;;12.90;61.57;101964.59;5010705;28;20050;-81
2023/02/13 11:13:23;;;;;;;11.73;8.98;;;;;;;12.92;61.01;101961.03;5011310;28;20069;-81
2023/02/13 11:16:06;;;;;;;10.23;8.93;;;;;;;12.95;60.65;101959.19;5009583;28;20061;-81
2023/02/13 11:18:36;;;;;;;11.38;8.93;;;;;;;13.02;61.32;101957.22;5009688;28;20145;-81
2023/02/13 11:21:09;;;;;;;9.93;8.75;;;;;;;13.07;60.92;101952.63;5011114;28;20053;-81
2023/02/13 11:23:41;;;;;;;10.60;8.60;;;;;;;13.14;61.52;101954.16;5002538;28;20060;-81
2023/02/13 11:26:10;;;;;;;10.13;8.48;;;;;;;13.20;61.39;101949.59;5010652;28;20064;-81
2023/02/13 11:28:55;;;;;;;9.77;8.45;;;;;;;13.21;59.50;101949.53;5002825;28;20512;-81
2023/02/13 11:31:24;;;;;;;9.60;8.57;;;;;;;13.29;61.13;101946.63;5011134;28;20058;-81
2023/02/13 11:33:51;;;;;;;12.02;8.45;;;;;;;13.32;60.76;101941.25;5010686;28;20566;-81
2023/02/13 11:36:29;;;;;;;11.15;8.57;;;;;;;13.30;59.03;101943.06;5010627;28;20444;-81
2023/02/13 11:39:03;;;;;;;10.27;8.32;;;;;;;13.32;58.66;101935.09;5009157;28;20054;-81
2023/02/13 11:41:39;;;;;;;9.85;8.82;;;;;;;13.32;58.80;101935.09;5009443;28;20049;-81
2023/02/13 11:44:19;;;;;;;10.30;8.63;;;;;;;13.28;59.17;101945.75;5010550;28;20049;-81
2023/02/13 11:46:48;;;;;;;10.32;8.57;;;;;;;13.34;60.13;101949.16;5009366;28;20452;-81
2023/02/13 11:49:24;;;;;;;9.85;8.68;;;;;;;13.32;58.97;101929.81;5010491;28;20046;-81
2023/02/13 11:51:52;;;;;;;10.43;8.30;;;;;;;13.35;59.79;101933.19;5010051;28;20539;-81
2023/02/13 11:54:42;;;;;;;10.60;8.57;;;;;;;13.33;59.13;101931.53;5010567;28;20864;-81
2023/02/13 11:57:21;;;;;;;12.35;9.13;;;;;;;13.36;59.01;101924.38;5008390;28;20061;-81
2023/02/13 11:59:50;;;;;;;12.35;9.18;;;;;;;13.42;60.11;101924.16;5010624;28;20086;-81
2023/02/13 12:02:19;;;;;;;15.30;10.15;;;;;;;13.54;61.11;101922.03;5010426;28;20054;-81
2023/02/13 12:04:48;;;;;;;10.20;9.18;;;;;;;13.85;64.71;101928.88;5010131;28;20052;-81
2023/02/13 12:07:19;;;;;;;11.32;9.35;;;;;;;14.41;65.07;101912.72;5009456;28;20367;-81